Terminal Aerodrome Forecast
Issued by NWS

Home | Current Version | Previous Version | Text Only | Print | Product List | Glossary On
Versions: 1 2 3 4 5 6 7 8 9 10 11 12 13
803
FTPA31 PHFO 210520
TAFHOG
TAF
PHOG 210520Z 2106/2206 05011G17KT P6SM VCSH FEW030 SCT050
      TEMPO 2106/2110 06009KT
     FM212000 05018G27KT P6SM VCSH FEW030 SCT050
     FM220500 05010KT P6SM FEW030 SCT050
      AMD LTD TO VIS AND WIND 2109/2116=

USA.gov is the U.S. government's official web portal to all federal, state and local government web resources and services.